createdAt,value
2022-08-14T00:00:30.567Z,40.89
2022-08-14T00:01:11.581Z,41.04
2022-08-14T00:01:54.659Z,40.93
2022-08-14T00:02:31.496Z,41.07
2022-08-14T00:03:07.273Z,40.95
2022-08-14T00:03:43.811Z,40.93
2022-08-14T00:04:32.162Z,40.81
2022-08-14T00:05:10.471Z,40.80
2022-08-14T00:05:58.274Z,41.00
2022-08-14T00:06:35.518Z,40.93
2022-08-14T00:07:14.280Z,41.10
2022-08-14T00:07:53.063Z,40.85
2022-08-14T00:08:44.458Z,41.09
2022-08-14T00:09:23.729Z,41.05
2022-08-14T00:10:50.284Z,40.84
2022-08-14T00:10:58.650Z,41.08
2022-08-14T00:11:36.155Z,40.91
2022-08-14T00:12:24.487Z,40.83
2022-08-14T00:13:06.835Z,41.03
2022-08-14T00:13:51.763Z,40.93
2022-08-14T00:14:32.245Z,41.03
2022-08-14T00:15:12.147Z,40.85
2022-08-14T00:15:50.902Z,41.09
2022-08-14T00:16:41.536Z,41.08
2022-08-14T00:17:24.783Z,41.07
2022-08-14T00:18:07.596Z,41.10
2022-08-14T00:19:06.426Z,41.73
2022-08-14T00:20:06.597Z,42.17
2022-08-14T00:22:01.453Z,42.06
2022-08-14T00:22:57.036Z,41.90
2022-08-14T00:23:42.699Z,41.80
2022-08-14T00:24:31.638Z,41.56
2022-08-14T00:25:23.170Z,41.40
2022-08-14T00:26:21.929Z,41.66
2022-08-14T00:27:14.821Z,41.49
2022-08-14T00:28:15.007Z,41.44
2022-08-14T00:29:01.965Z,41.36
2022-08-14T00:29:49.261Z,41.31
2022-08-14T00:30:34.442Z,41.12
2022-08-14T00:31:17.064Z,41.27
2022-08-14T00:32:00.245Z,41.21
2022-08-14T00:33:15.180Z,41.06
2022-08-14T00:34:35.367Z,41.17
2022-08-14T00:35:06.872Z,41.20
2022-08-14T00:36:47.018Z,41.00
2022-08-14T00:37:04.886Z,41.29
2022-08-14T00:37:53.580Z,41.28
2022-08-14T00:38:39.621Z,41.32
2022-08-14T00:39:27.828Z,41.03
2022-08-14T00:40:27.372Z,41.07
2022-08-14T00:41:26.818Z,41.13
2022-08-14T00:43:08.514Z,41.28
2022-08-14T00:44:00.347Z,40.99
2022-08-14T00:45:53.784Z,41.13
2022-08-14T00:47:00.183Z,41.22
2022-08-14T00:48:00.044Z,41.00
2022-08-14T00:48:49.198Z,41.20
2022-08-14T00:49:42.666Z,41.21
2022-08-14T00:50:27.518Z,41.15
2022-08-14T00:51:14.772Z,41.18
2022-08-14T00:52:01.544Z,41.24
2022-08-14T00:52:50.890Z,41.29
2022-08-14T00:53:38.524Z,42.09
2022-08-14T00:54:24.598Z,42.33
2022-08-14T00:55:13.961Z,42.23
2022-08-14T00:56:01.345Z,42.52
2022-08-14T00:56:51.450Z,42.42
2022-08-14T00:57:43.087Z,42.12
2022-08-14T00:58:32.944Z,42.09
2022-08-14T00:59:16.839Z,41.86
2022-08-14T01:00:01.978Z,41.94
2022-08-14T01:00:57.573Z,41.76
2022-08-14T01:01:46.973Z,41.83
2022-08-14T01:03:34.241Z,41.41
2022-08-14T01:04:51.014Z,41.71
2022-08-14T01:05:41.697Z,41.52
2022-08-14T01:06:34.429Z,41.64
2022-08-14T01:07:23.159Z,41.26
2022-08-14T01:08:50.597Z,41.54
2022-08-14T01:09:17.878Z,41.50
2022-08-14T01:10:02.972Z,41.40
2022-08-14T01:10:49.629Z,41.52
2022-08-14T01:11:39.068Z,41.30
2022-08-14T01:12:27.406Z,41.43
2022-08-14T01:14:25.950Z,41.17
2022-08-14T01:15:20.406Z,41.40
2022-08-14T01:16:26.336Z,41.40
2022-08-14T01:17:15.908Z,41.20
2022-08-14T01:18:07.346Z,41.45
2022-08-14T01:19:01.405Z,41.44
2022-08-14T01:19:48.081Z,41.46
2022-08-14T01:21:34.691Z,41.37
2022-08-14T01:22:26.968Z,41.20
2022-08-14T01:23:18.917Z,41.46
2022-08-14T01:25:03.093Z,41.35
2022-08-14T01:26:07.197Z,41.34
2022-08-14T01:27:27.217Z,41.28
2022-08-14T01:28:46.470Z,41.13
2022-08-14T01:29:59.201Z,41.38
2022-08-14T01:30:48.851Z,41.33
2022-08-14T01:31:33.218Z,41.31
2022-08-14T01:32:23.789Z,41.37
2022-08-14T01:33:14.582Z,41.04
2022-08-14T01:35:17.243Z,41.29
2022-08-14T01:35:18.393Z,41.39
2022-08-14T01:36:21.130Z,41.79
2022-08-14T01:38:06.543Z,41.94
2022-08-14T01:39:54.902Z,42.33
2022-08-14T01:40:41.846Z,42.29
2022-08-14T01:42:36.144Z,42.25
2022-08-14T01:43:27.071Z,42.49
2022-08-14T01:44:32.907Z,42.88
2022-08-14T01:45:25.825Z,43.17
2022-08-14T01:46:24.366Z,43.05
2022-08-14T01:48:03.526Z,42.66
2022-08-14T01:48:54.000Z,42.63
2022-08-14T01:49:59.861Z,42.64
2022-08-14T01:50:54.570Z,42.52
2022-08-14T01:51:50.859Z,42.44
2022-08-14T01:52:58.742Z,42.49
2022-08-14T01:53:47.026Z,42.30
2022-08-14T01:54:44.033Z,42.94
2022-08-14T01:55:47.120Z,43.38
2022-08-14T01:56:39.498Z,43.17
2022-08-14T01:57:49.230Z,43.33
2022-08-14T01:58:31.627Z,43.04
2022-08-14T01:59:18.551Z,43.42
2022-08-14T02:00:03.379Z,43.23
2022-08-14T02:00:48.372Z,43.12
2022-08-14T02:01:33.484Z,42.92
2022-08-14T02:02:20.668Z,43.05
2022-08-14T02:03:06.843Z,43.16
2022-08-14T02:04:01.525Z,43.06
2022-08-14T02:05:01.977Z,43.06
2022-08-14T02:05:44.645Z,43.11
2022-08-14T02:06:32.336Z,43.27
2022-08-14T02:07:27.184Z,43.13
2022-08-14T02:08:34.618Z,43.13
2022-08-14T02:09:19.022Z,43.22
2022-08-14T02:10:13.222Z,43.50
2022-08-14T02:11:03.476Z,43.40
2022-08-14T02:11:54.381Z,43.33
2022-08-14T02:12:39.539Z,43.51
2022-08-14T02:13:29.297Z,43.35
2022-08-14T02:14:16.300Z,43.28
2022-08-14T02:15:11.686Z,43.35
2022-08-14T02:16:00.862Z,43.46
2022-08-14T02:17:04.915Z,43.35
2022-08-14T02:17:52.659Z,43.32
2022-08-14T02:18:40.489Z,43.38
2022-08-14T02:19:28.247Z,43.48
2022-08-14T02:20:11.927Z,43.36
2022-08-14T02:20:56.934Z,43.34
2022-08-14T02:21:48.856Z,43.32
2022-08-14T02:22:47.615Z,43.31
2022-08-14T02:23:36.355Z,43.37
2022-08-14T02:24:39.185Z,43.38
2022-08-14T02:25:21.688Z,43.26
2022-08-14T02:26:24.773Z,43.35
2022-08-14T02:28:23.805Z,43.34
2022-08-14T02:28:24.171Z,43.04
2022-08-14T02:29:11.034Z,43.04
2022-08-14T02:30:02.029Z,43.04
2022-08-14T02:30:48.122Z,42.91
2022-08-14T02:31:42.527Z,43.03
2022-08-14T02:32:36.255Z,43.04
2022-08-14T02:33:29.425Z,42.91
2022-08-14T02:34:22.173Z,42.65
2022-08-14T02:35:09.722Z,42.66
2022-08-14T02:36:05.146Z,42.68
2022-08-14T02:37:04.521Z,42.65
2022-08-14T02:37:50.597Z,42.85
2022-08-14T02:38:37.306Z,42.65
2022-08-14T02:39:37.253Z,42.75
2022-08-14T02:40:32.435Z,42.67
2022-08-14T02:41:18.113Z,42.83
2022-08-14T02:42:00.367Z,42.80
2022-08-14T02:42:54.688Z,42.50
2022-08-14T02:43:46.528Z,42.43
2022-08-14T02:44:39.745Z,42.51
2022-08-14T02:45:33.287Z,42.79
2022-08-14T02:46:27.194Z,42.92
2022-08-14T02:47:14.922Z,42.66
2022-08-14T02:48:03.131Z,42.93
2022-08-14T02:49:03.318Z,42.82
2022-08-14T02:49:56.715Z,42.71
2022-08-14T02:50:44.498Z,42.70
2022-08-14T02:51:39.947Z,42.91
2022-08-14T02:52:57.208Z,42.69
2022-08-14T02:53:34.698Z,42.57
2022-08-14T02:54:24.290Z,42.86
2022-08-14T02:55:09.433Z,42.61
2022-08-14T02:56:02.519Z,42.78
2022-08-14T02:57:16.704Z,42.82
2022-08-14T02:57:52.018Z,42.96
2022-08-14T02:58:43.721Z,42.87
2022-08-14T02:59:33.617Z,42.81
2022-08-14T03:00:20.832Z,42.89
2022-08-14T03:01:06.402Z,42.77
2022-08-14T03:01:54.930Z,42.63
2022-08-14T03:02:56.811Z,42.62
2022-08-14T03:03:46.349Z,42.81
2022-08-14T03:04:34.591Z,42.72
2022-08-14T03:05:22.820Z,42.63
2022-08-14T03:06:10.567Z,42.54
2022-08-14T03:07:07.617Z,42.62
2022-08-14T03:07:53.324Z,42.81
2022-08-14T03:08:45.984Z,42.72
2022-08-14T03:10:24.810Z,42.78
2022-08-14T03:10:32.362Z,42.81
2022-08-14T03:11:19.845Z,42.74
2022-08-14T03:12:09.350Z,42.61
2022-08-14T03:12:58.473Z,42.64
2022-08-14T03:13:50.102Z,42.49
2022-08-14T03:14:36.946Z,42.47
2022-08-14T03:15:27.620Z,42.74
2022-08-14T03:16:26.924Z,42.42
2022-08-14T03:17:12.798Z,42.54
2022-08-14T03:18:01.679Z,42.71
2022-08-14T03:18:52.754Z,42.74
2022-08-14T03:19:39.532Z,42.74
2022-08-14T03:20:39.235Z,42.80
2022-08-14T03:21:46.333Z,42.55
2022-08-14T03:22:38.686Z,42.71
2022-08-14T03:23:32.503Z,43.12
2022-08-14T03:24:23.093Z,43.11
2022-08-14T03:25:08.525Z,43.35
2022-08-14T03:26:01.275Z,43.47
2022-08-14T03:26:56.107Z,43.31
2022-08-14T03:27:48.577Z,43.50
2022-08-14T03:28:42.657Z,43.46
2022-08-14T03:29:26.729Z,43.54
2022-08-14T03:30:23.530Z,43.69
2022-08-14T03:31:13.277Z,43.80
2022-08-14T03:32:01.879Z,43.63
2022-08-14T03:32:51.511Z,44.02
2022-08-14T03:33:41.268Z,43.69
2022-08-14T03:34:47.742Z,43.92
2022-08-14T03:35:39.773Z,43.76
2022-08-14T03:37:38.259Z,43.81
2022-08-14T03:39:10.002Z,43.58
2022-08-14T03:39:13.949Z,43.85
2022-08-14T03:39:33.663Z,43.65
2022-08-14T03:40:23.489Z,43.76
2022-08-14T03:41:10.582Z,43.79
2022-08-14T03:42:01.848Z,43.94
2022-08-14T03:42:54.186Z,43.87
2022-08-14T03:43:46.304Z,43.97
2022-08-14T03:45:19.382Z,44.07
2022-08-14T03:45:48.010Z,43.94
2022-08-14T03:46:38.782Z,43.94
2022-08-14T03:47:46.302Z,44.01
2022-08-14T03:48:40.274Z,43.80
2022-08-14T03:49:29.402Z,44.02
2022-08-14T03:50:11.589Z,43.98
2022-08-14T03:50:58.767Z,44.00
2022-08-14T03:51:49.126Z,44.19
2022-08-14T03:52:48.104Z,44.04
2022-08-14T03:53:40.288Z,44.04
2022-08-14T03:54:26.072Z,44.04
2022-08-14T03:55:15.302Z,44.30
2022-08-14T03:56:02.474Z,44.07
2022-08-14T03:56:53.392Z,44.19
2022-08-14T03:57:42.785Z,44.08
2022-08-14T03:58:36.747Z,44.10
2022-08-14T03:59:24.020Z,44.17
2022-08-14T04:00:43.426Z,44.08
2022-08-14T04:01:18.465Z,44.30
2022-08-14T04:02:31.861Z,44.44
2022-08-14T04:03:08.656Z,44.13
2022-08-14T04:03:59.682Z,44.22
2022-08-14T04:06:35.288Z,44.31
2022-08-14T04:07:36.078Z,44.48
2022-08-14T04:08:30.536Z,44.60
2022-08-14T04:09:23.958Z,44.43
2022-08-14T04:10:32.401Z,44.42
2022-08-14T04:11:19.166Z,44.21
2022-08-14T04:12:26.377Z,44.47
2022-08-14T04:13:27.924Z,44.51
2022-08-14T04:14:18.539Z,44.51
2022-08-14T04:15:11.366Z,44.20
2022-08-14T04:16:02.284Z,44.07
2022-08-14T04:16:56.259Z,44.22
2022-08-14T04:17:49.319Z,44.26
2022-08-14T04:18:39.934Z,44.13
2022-08-14T04:19:36.434Z,44.04
2022-08-14T04:20:25.478Z,44.18
2022-08-14T04:21:06.380Z,44.20
2022-08-14T04:22:01.791Z,44.13
2022-08-14T04:22:49.379Z,44.23
2022-08-14T04:23:39.717Z,44.14
2022-08-14T04:24:37.736Z,44.33
2022-08-14T04:25:26.444Z,44.41
2022-08-14T04:26:27.496Z,44.37
2022-08-14T04:27:24.513Z,44.38
2022-08-14T04:29:07.301Z,44.49
2022-08-14T04:29:21.819Z,44.61
2022-08-14T04:30:09.640Z,44.54
2022-08-14T04:31:12.162Z,44.50
2022-08-14T04:32:59.000Z,44.57
2022-08-14T04:33:08.637Z,44.58
2022-08-14T04:33:58.618Z,44.65
2022-08-14T04:34:52.025Z,44.61
2022-08-14T04:35:55.670Z,44.59
2022-08-14T04:36:38.653Z,44.57
2022-08-14T04:37:27.473Z,44.66
2022-08-14T04:38:37.024Z,44.33
2022-08-14T04:39:20.982Z,44.26
2022-08-14T04:40:10.325Z,44.49
2022-08-14T04:41:05.186Z,44.51
2022-08-14T04:41:51.874Z,44.43
2022-08-14T04:43:39.134Z,44.20
2022-08-14T04:44:36.825Z,44.16
2022-08-14T04:45:21.533Z,43.97
2022-08-14T04:46:11.878Z,44.04
2022-08-14T04:47:12.753Z,43.93
2022-08-14T04:48:10.091Z,44.08
2022-08-14T04:49:00.157Z,44.19
2022-08-14T04:49:56.675Z,44.15
2022-08-14T04:50:44.425Z,44.07
2022-08-14T04:51:25.836Z,43.99
2022-08-14T04:52:15.436Z,43.90
2022-08-14T04:53:14.100Z,43.74
2022-08-14T04:54:05.185Z,43.94
2022-08-14T04:54:57.810Z,43.71
2022-08-14T04:55:43.530Z,43.84
2022-08-14T04:56:34.245Z,43.78
2022-08-14T04:57:23.947Z,43.88
2022-08-14T04:58:21.521Z,43.56
2022-08-14T04:59:11.148Z,43.81
2022-08-14T05:00:02.349Z,43.61
2022-08-14T05:00:52.122Z,43.80
2022-08-14T05:01:40.840Z,43.89
2022-08-14T05:02:30.659Z,43.73
2022-08-14T05:03:22.856Z,43.79
2022-08-14T05:04:19.629Z,43.75
2022-08-14T05:05:04.330Z,43.77
2022-08-14T05:06:44.656Z,43.72
2022-08-14T05:07:54.536Z,43.84
2022-08-14T05:08:57.391Z,43.65
2022-08-14T05:09:47.885Z,43.83
2022-08-14T05:10:42.234Z,44.08
2022-08-14T05:11:31.221Z,44.14
2022-08-14T05:13:13.162Z,44.25
2022-08-14T05:13:19.137Z,44.46
2022-08-14T05:14:17.198Z,44.52
2022-08-14T05:15:11.456Z,44.64
2022-08-14T05:16:00.569Z,44.47
2022-08-14T05:16:46.530Z,44.73
2022-08-14T05:17:54.020Z,44.73
2022-08-14T05:19:19.124Z,44.75
2022-08-14T05:21:04.911Z,44.79
2022-08-14T05:21:55.132Z,44.79
2022-08-14T05:21:56.577Z,44.80
2022-08-14T05:22:53.090Z,44.85
2022-08-14T05:23:47.048Z,45.13
2022-08-14T05:24:39.474Z,45.09
2022-08-14T05:25:34.903Z,45.13
2022-08-14T05:26:25.646Z,45.31
2022-08-14T05:27:31.232Z,45.08
2022-08-14T05:28:16.311Z,45.00
2022-08-14T05:29:22.274Z,45.05
2022-08-14T05:30:10.007Z,45.08
2022-08-14T05:30:56.041Z,45.20
2022-08-14T05:31:41.082Z,44.93
2022-08-14T05:32:32.956Z,45.19
2022-08-14T05:33:26.906Z,45.03
2022-08-14T05:34:13.521Z,44.98
2022-08-14T05:35:07.218Z,45.02
2022-08-14T05:35:56.565Z,44.94
2022-08-14T05:36:50.586Z,44.84
2022-08-14T05:37:47.425Z,45.06
2022-08-14T05:38:37.314Z,44.98
2022-08-14T05:39:29.984Z,44.82
2022-08-14T05:40:19.437Z,44.61
2022-08-14T05:41:14.054Z,44.58
2022-08-14T05:41:57.402Z,44.65
2022-08-14T05:42:46.519Z,44.20
2022-08-14T05:43:40.887Z,44.47
2022-08-14T05:44:29.938Z,44.28
2022-08-14T05:45:13.690Z,44.35
2022-08-14T05:45:57.563Z,44.50
2022-08-14T05:46:49.509Z,44.51
2022-08-14T05:47:33.932Z,44.51
2022-08-14T05:48:32.712Z,44.24
2022-08-14T05:49:17.769Z,44.41
2022-08-14T05:50:02.383Z,44.65
2022-08-14T05:50:51.168Z,44.44
2022-08-14T05:52:39.096Z,44.37
2022-08-14T05:53:33.579Z,44.30
2022-08-14T05:54:26.943Z,44.21
2022-08-14T05:55:22.842Z,44.44
2022-08-14T05:56:07.178Z,44.55
2022-08-14T05:56:52.537Z,44.67
2022-08-14T05:57:46.243Z,44.78
2022-08-14T05:58:40.939Z,44.78
2022-08-14T05:59:28.639Z,44.77
2022-08-14T06:00:24.755Z,44.84
2022-08-14T06:01:13.499Z,44.58
2022-08-14T06:01:56.876Z,44.98
2022-08-14T06:02:48.308Z,44.56
2022-08-14T06:03:40.299Z,44.63
2022-08-14T06:04:31.265Z,44.41
2022-08-14T06:05:16.847Z,44.39
2022-08-14T06:06:11.401Z,44.44
2022-08-14T06:06:58.728Z,44.48
2022-08-14T06:07:47.593Z,44.53
2022-08-14T06:08:41.787Z,44.66
2022-08-14T06:09:24.531Z,44.65
2022-08-14T06:10:10.120Z,44.88
2022-08-14T06:10:55.696Z,44.82
2022-08-14T06:11:50.749Z,44.68
2022-08-14T06:13:45.262Z,45.01
2022-08-14T06:14:29.756Z,45.34
2022-08-14T06:15:19.216Z,45.53
2022-08-14T06:16:05.786Z,45.63
2022-08-14T06:16:53.410Z,45.73
2022-08-14T06:17:46.280Z,45.82
2022-08-14T06:18:32.113Z,45.98
2022-08-14T06:19:18.410Z,45.71
2022-08-14T06:20:03.245Z,45.64
2022-08-14T06:20:51.839Z,45.94
2022-08-14T06:21:40.958Z,45.97
2022-08-14T06:22:24.316Z,45.99
2022-08-14T06:23:09.116Z,45.86
2022-08-14T06:23:54.026Z,45.75
2022-08-14T06:24:37.220Z,45.84
2022-08-14T06:25:27.801Z,45.95
2022-08-14T06:26:12.601Z,46.03
2022-08-14T06:27:10.049Z,45.68
2022-08-14T06:27:55.070Z,45.90
2022-08-14T06:28:47.225Z,45.56
2022-08-14T06:29:46.079Z,45.45
2022-08-14T06:30:47.375Z,45.38
2022-08-14T06:32:37.451Z,45.32
2022-08-14T06:35:12.098Z,46.15
2022-08-14T06:36:11.484Z,46.14
2022-08-14T06:37:05.188Z,46.10
2022-08-14T06:39:08.122Z,46.27
2022-08-14T06:41:10.941Z,46.46
2022-08-14T06:43:31.779Z,46.77
2022-08-14T06:44:37.975Z,46.62
2022-08-14T06:45:48.318Z,46.36
2022-08-14T06:46:49.198Z,46.24
2022-08-14T06:47:45.456Z,46.27
2022-08-14T06:48:38.198Z,46.06
2022-08-14T06:49:30.103Z,45.98
2022-08-14T06:51:19.717Z,45.96
2022-08-14T06:52:15.326Z,46.19
2022-08-14T06:54:47.657Z,46.32
2022-08-14T06:55:34.178Z,46.62
2022-08-14T06:56:19.104Z,46.69
2022-08-14T06:58:03.315Z,46.55
2022-08-14T06:58:55.600Z,46.69
2022-08-14T06:59:45.083Z,46.58
2022-08-14T07:01:28.524Z,46.09
2022-08-14T07:02:21.122Z,46.16
2022-08-14T07:03:06.346Z,45.93
2022-08-14T07:04:01.569Z,45.86
2022-08-14T07:04:48.815Z,45.94
2022-08-14T07:05:34.643Z,46.05
2022-08-14T07:06:21.516Z,45.94
2022-08-14T07:07:22.379Z,46.13
2022-08-14T07:09:06.763Z,45.94
2022-08-14T07:10:53.456Z,45.91
2022-08-14T07:11:48.974Z,46.16
2022-08-14T07:13:01.876Z,46.24
2022-08-14T07:13:54.619Z,46.08
2022-08-14T07:14:56.924Z,46.10
2022-08-14T07:15:51.041Z,46.00
2022-08-14T07:16:48.092Z,46.24
2022-08-14T07:17:46.378Z,46.08
2022-08-14T07:18:44.719Z,45.93
2022-08-14T07:19:41.710Z,46.11
2022-08-14T07:22:05.547Z,45.89
2022-08-14T07:23:07.983Z,46.16
2022-08-14T07:23:59.851Z,45.62
2022-08-14T07:24:52.272Z,45.75
2022-08-14T07:25:42.193Z,45.60
2022-08-14T07:26:41.946Z,45.75
2022-08-14T07:27:28.056Z,45.81
2022-08-14T07:28:20.443Z,46.07
2022-08-14T07:29:08.902Z,45.81
2022-08-14T07:29:52.323Z,45.95
2022-08-14T07:30:42.061Z,45.57
2022-08-14T07:31:40.606Z,45.61
2022-08-14T07:32:34.188Z,45.61
2022-08-14T07:33:30.031Z,45.94
2022-08-14T07:35:20.167Z,45.70
2022-08-14T07:36:32.742Z,45.91
2022-08-14T07:37:44.321Z,46.04
2022-08-14T07:38:37.845Z,45.93
2022-08-14T07:39:30.175Z,45.90
2022-08-14T07:40:27.442Z,45.79
2022-08-14T07:41:14.661Z,45.63
2022-08-14T07:42:22.603Z,45.50
2022-08-14T07:43:20.398Z,45.39
2022-08-14T07:45:22.698Z,45.34
2022-08-14T07:46:21.170Z,45.49
2022-08-14T07:47:18.715Z,45.30
2022-08-14T07:48:06.658Z,45.48
2022-08-14T07:48:53.807Z,45.55
2022-08-14T07:49:45.410Z,45.40
2022-08-14T07:50:37.329Z,45.51
2022-08-14T07:51:24.596Z,45.36
2022-08-14T07:53:10.265Z,45.74
2022-08-14T07:54:12.423Z,45.59
2022-08-14T07:56:56.597Z,45.51
2022-08-14T07:57:51.827Z,45.63
2022-08-14T07:58:38.905Z,45.73
2022-08-14T07:59:42.812Z,45.79
2022-08-14T08:00:42.364Z,45.90
2022-08-14T08:01:51.938Z,45.92
2022-08-14T08:02:55.849Z,45.91
2022-08-14T08:03:41.354Z,45.89
2022-08-14T08:04:36.207Z,45.97
2022-08-14T08:05:30.788Z,45.91
2022-08-14T08:06:17.776Z,45.87
2022-08-14T08:07:07.597Z,46.01
2022-08-14T08:07:59.588Z,46.01
2022-08-14T08:08:47.363Z,45.68
2022-08-14T08:09:46.014Z,45.96
2022-08-14T08:10:46.161Z,45.76
2022-08-14T08:11:37.117Z,45.82
2022-08-14T08:12:30.864Z,45.75
2022-08-14T08:14:26.914Z,45.90
2022-08-14T08:15:20.213Z,45.91
2022-08-14T08:16:12.814Z,46.06
2022-08-14T08:17:00.762Z,46.14
2022-08-14T08:17:53.948Z,46.13
2022-08-14T08:18:55.067Z,46.16
2022-08-14T08:19:51.629Z,45.87
2022-08-14T08:20:37.031Z,46.03
2022-08-14T08:21:23.693Z,46.14
2022-08-14T08:22:12.591Z,46.10
2022-08-14T08:23:06.426Z,46.00
2022-08-14T08:23:56.639Z,46.13
2022-08-14T08:24:47.185Z,46.13
2022-08-14T08:25:41.991Z,45.94
2022-08-14T08:26:30.309Z,45.94
2022-08-14T08:27:21.418Z,45.87
2022-08-14T08:28:19.756Z,46.10
2022-08-14T08:29:04.773Z,46.08
2022-08-14T08:30:04.057Z,46.04
2022-08-14T08:31:00.038Z,45.99
2022-08-14T08:31:52.054Z,46.10
2022-08-14T08:32:41.967Z,45.89
2022-08-14T08:33:37.324Z,45.86
2022-08-14T08:34:30.455Z,46.07
2022-08-14T08:35:20.363Z,46.01
2022-08-14T08:36:18.822Z,45.75
2022-08-14T08:37:09.578Z,45.73
2022-08-14T08:38:14.265Z,45.78
2022-08-14T08:39:16.676Z,45.93
2022-08-14T08:40:20.578Z,45.87
2022-08-14T08:41:09.606Z,45.81
2022-08-14T08:42:15.950Z,46.03
2022-08-14T08:43:46.761Z,46.07
2022-08-14T08:44:45.031Z,45.93
2022-08-14T08:45:36.030Z,45.87
2022-08-14T08:46:23.871Z,45.83
2022-08-14T08:47:11.623Z,45.87
2022-08-14T08:48:03.431Z,45.68
2022-08-14T08:49:42.312Z,45.78
2022-08-14T08:51:18.761Z,45.80
2022-08-14T08:52:06.009Z,45.88
2022-08-14T08:52:55.244Z,45.83
2022-08-14T08:53:42.770Z,45.82
2022-08-14T08:54:31.038Z,45.68
2022-08-14T08:55:22.761Z,45.64
2022-08-14T08:57:09.543Z,46.00
2022-08-14T08:59:16.099Z,46.20
2022-08-14T09:00:02.937Z,46.31
2022-08-14T09:00:53.968Z,46.56
2022-08-14T09:01:40.204Z,46.67
2022-08-14T09:02:29.024Z,46.38
2022-08-14T09:04:21.507Z,46.49
2022-08-14T09:05:05.965Z,46.57
2022-08-14T09:05:54.038Z,46.80
2022-08-14T09:07:00.015Z,46.63
2022-08-14T09:08:39.375Z,46.66
2022-08-14T09:09:54.249Z,47.03
2022-08-14T09:10:46.255Z,46.87
2022-08-14T09:11:48.148Z,47.04
2022-08-14T09:13:41.562Z,46.80
2022-08-14T09:14:41.836Z,47.18
2022-08-14T09:15:36.825Z,47.03
2022-08-14T09:16:30.464Z,46.96
2022-08-14T09:18:09.428Z,46.90
2022-08-14T09:18:55.011Z,47.05
2022-08-14T09:19:57.020Z,46.88
2022-08-14T09:21:01.031Z,46.70
2022-08-14T09:22:35.936Z,46.72
2022-08-14T09:23:09.387Z,46.64
2022-08-14T09:24:29.689Z,46.66
2022-08-14T09:25:15.768Z,46.25
2022-08-14T09:26:01.581Z,46.52
2022-08-14T09:27:07.613Z,46.54
2022-08-14T09:27:55.945Z,46.29
2022-08-14T09:29:54.258Z,46.56
2022-08-14T09:31:42.978Z,46.74
2022-08-14T09:32:58.924Z,46.93
2022-08-14T09:33:36.909Z,46.77
2022-08-14T09:34:47.399Z,47.03
2022-08-14T09:35:47.796Z,47.06
2022-08-14T09:36:43.958Z,46.77
2022-08-14T09:37:32.110Z,46.98
2022-08-14T09:38:26.200Z,47.04
2022-08-14T09:39:22.886Z,46.92
2022-08-14T09:40:04.958Z,47.11
2022-08-14T09:40:55.902Z,47.13
2022-08-14T09:42:20.610Z,47.24
2022-08-14T09:43:13.444Z,46.93
2022-08-14T09:44:08.093Z,46.86
2022-08-14T09:45:08.928Z,47.03
2022-08-14T09:46:06.341Z,46.98
2022-08-14T09:46:53.007Z,46.98
2022-08-14T09:47:38.835Z,46.68
2022-08-14T09:48:30.681Z,46.59
2022-08-14T09:49:17.280Z,46.59
2022-08-14T09:50:56.688Z,46.64
2022-08-14T09:51:51.908Z,46.69
2022-08-14T09:52:46.318Z,46.72
2022-08-14T09:54:43.786Z,46.88
2022-08-14T09:55:44.450Z,46.93
2022-08-14T09:56:34.973Z,46.88
2022-08-14T09:57:36.069Z,46.84
2022-08-14T10:00:30.956Z,46.88
2022-08-14T10:01:22.767Z,46.86
2022-08-14T10:02:09.845Z,46.84
2022-08-14T10:02:59.012Z,46.92
2022-08-14T10:03:52.392Z,46.87
2022-08-14T10:05:47.239Z,47.04
2022-08-14T10:06:45.151Z,46.89
2022-08-14T10:10:02.667Z,46.90
2022-08-14T10:11:09.004Z,47.08
2022-08-14T10:12:04.419Z,46.93
2022-08-14T10:12:52.876Z,47.12
2022-08-14T10:13:52.487Z,46.78
2022-08-14T10:14:44.580Z,46.94
2022-08-14T10:15:46.202Z,46.78
2022-08-14T10:16:40.780Z,46.94
2022-08-14T10:17:38.978Z,46.84
2022-08-14T10:18:21.383Z,46.60
2022-08-14T10:19:12.723Z,46.63
2022-08-14T10:20:39.497Z,46.77
2022-08-14T10:21:12.777Z,47.02
2022-08-14T10:23:15.336Z,46.85
2022-08-14T10:25:04.658Z,46.95
2022-08-14T10:27:00.873Z,46.70
2022-08-14T10:29:18.098Z,46.83
2022-08-14T10:29:53.223Z,46.70
2022-08-14T10:30:59.451Z,46.79
2022-08-14T10:31:57.082Z,46.81
2022-08-14T10:32:53.200Z,46.71
2022-08-14T10:33:39.981Z,47.09
2022-08-14T10:34:36.652Z,46.71
2022-08-14T10:35:31.781Z,46.66
2022-08-14T10:36:26.766Z,46.69
2022-08-14T10:37:23.092Z,46.59
2022-08-14T10:38:16.714Z,46.54
2022-08-14T10:39:05.278Z,46.68
2022-08-14T10:40:01.873Z,46.61
2022-08-14T10:40:52.410Z,46.68
2022-08-14T10:41:36.854Z,46.69
2022-08-14T10:42:24.413Z,46.67
2022-08-14T10:43:01.229Z,46.77
2022-08-14T10:43:37.477Z,46.71
2022-08-14T10:44:21.319Z,46.67
2022-08-14T10:45:02.686Z,46.54
2022-08-14T10:45:59.788Z,46.66
2022-08-14T10:47:39.723Z,46.41
2022-08-14T10:48:02.704Z,46.53
2022-08-14T10:48:36.967Z,46.39
2022-08-14T10:49:15.215Z,46.51
2022-08-14T10:49:53.324Z,46.58
2022-08-14T10:50:32.004Z,46.40
2022-08-14T10:51:09.075Z,46.48
2022-08-14T10:51:45.797Z,46.41
2022-08-14T10:52:26.266Z,46.24
2022-08-14T10:53:05.109Z,46.51
2022-08-14T10:53:47.672Z,46.46
2022-08-14T10:54:35.742Z,46.27
2022-08-14T10:55:22.290Z,46.14
2022-08-14T10:56:05.957Z,46.13
2022-08-14T10:56:49.101Z,46.06
2022-08-14T10:57:27.126Z,46.15
2022-08-14T10:58:04.985Z,46.26
2022-08-14T10:58:41.830Z,46.32
2022-08-14T10:59:18.427Z,46.05
2022-08-14T10:59:55.945Z,46.32
2022-08-14T11:00:35.711Z,46.26
2022-08-14T11:01:15.296Z,46.06
2022-08-14T11:01:53.773Z,46.06
2022-08-14T11:02:44.845Z,46.31
2022-08-14T11:03:55.414Z,46.15
2022-08-14T11:04:28.373Z,45.98
2022-08-14T11:05:08.920Z,46.01
2022-08-14T11:05:45.156Z,45.96
2022-08-14T11:06:21.618Z,46.00
2022-08-14T11:07:00.264Z,46.20
2022-08-14T11:07:37.450Z,46.20
2022-08-14T11:08:15.350Z,46.12
2022-08-14T11:08:51.916Z,46.05
2022-08-14T11:09:32.188Z,45.86
2022-08-14T11:10:08.542Z,46.14
2022-08-14T11:10:48.168Z,45.89
2022-08-14T11:11:35.746Z,45.87
2022-08-14T11:12:34.845Z,45.96
2022-08-14T11:13:07.807Z,45.89
2022-08-14T11:13:46.321Z,45.91
2022-08-14T11:14:26.587Z,46.10
2022-08-14T11:15:04.096Z,46.03
2022-08-14T11:15:45.515Z,46.07
2022-08-14T11:16:27.611Z,45.91
2022-08-14T11:17:08.725Z,45.88
2022-08-14T11:17:49.182Z,45.65
2022-08-14T11:18:32.040Z,45.90
2022-08-14T11:19:10.074Z,45.99
2022-08-14T11:19:53.899Z,45.95
2022-08-14T11:20:31.604Z,45.74
2022-08-14T11:21:08.260Z,45.83
2022-08-14T11:21:45.832Z,45.85
2022-08-14T11:22:52.932Z,45.97
2022-08-14T11:23:16.709Z,45.82
2022-08-14T11:23:57.236Z,45.93
2022-08-14T11:24:54.270Z,45.79
2022-08-14T11:25:44.106Z,45.95
2022-08-14T11:26:26.453Z,45.96
2022-08-14T11:27:03.424Z,45.75
2022-08-14T11:27:39.848Z,45.64
2022-08-14T11:28:19.009Z,45.64
2022-08-14T11:28:55.313Z,45.68
2022-08-14T11:29:36.184Z,45.58
2022-08-14T11:30:49.893Z,45.56
2022-08-14T11:31:10.325Z,45.83
2022-08-14T11:31:51.745Z,45.63
2022-08-14T11:32:30.574Z,45.69
2022-08-14T11:33:09.135Z,45.78
2022-08-14T11:33:48.742Z,45.70
2022-08-14T11:34:33.561Z,45.53
2022-08-14T11:35:18.579Z,45.54
2022-08-14T11:36:00.678Z,45.77
2022-08-14T11:37:02.494Z,45.73
2022-08-14T11:37:40.555Z,45.68
2022-08-14T11:38:17.088Z,45.51
2022-08-14T11:38:53.897Z,45.47
2022-08-14T11:39:34.398Z,45.46
2022-08-14T11:40:12.541Z,45.46
2022-08-14T11:40:52.436Z,45.68
2022-08-14T11:41:27.719Z,45.59
2022-08-14T11:42:55.403Z,45.80
2022-08-14T11:42:59.852Z,45.51
2022-08-14T11:43:37.593Z,45.51
2022-08-14T11:44:17.962Z,45.59
2022-08-14T11:45:17.090Z,45.51
2022-08-14T11:45:54.456Z,45.56
2022-08-14T11:46:37.544Z,45.62
2022-08-14T11:47:18.090Z,45.80
2022-08-14T11:48:12.618Z,45.73
2022-08-14T11:49:04.095Z,45.77
2022-08-14T11:49:47.845Z,45.73
2022-08-14T11:50:37.230Z,45.38
2022-08-14T11:51:14.596Z,45.53
2022-08-14T11:51:54.575Z,45.80
2022-08-14T11:52:29.809Z,45.46
2022-08-14T11:53:08.618Z,45.55
2022-08-14T11:53:44.664Z,45.62
2022-08-14T11:54:33.535Z,45.35
2022-08-14T11:55:10.710Z,45.40
2022-08-14T11:55:46.976Z,45.55
2022-08-14T11:56:30.591Z,45.58
2022-08-14T11:57:06.719Z,45.43